createdAt,value
2022-09-20T00:00:54.251Z,8.38
2022-09-20T00:02:55.210Z,8.32
2022-09-20T00:04:56.231Z,8.32
2022-09-20T00:06:57.483Z,8.33
2022-09-20T00:08:58.639Z,8.3
2022-09-20T00:10:59.684Z,8.19
2022-09-20T00:13:00.669Z,8.15
2022-09-20T00:15:02.171Z,8.23
2022-09-20T00:17:03.377Z,8.11
2022-09-20T00:19:04.522Z,8.03
2022-09-20T00:21:06.435Z,8.07
2022-09-20T00:23:07.635Z,8.13
2022-09-20T00:25:09.658Z,8.11
2022-09-20T00:27:10.867Z,8.14
2022-09-20T00:29:12.093Z,8.13
2022-09-20T00:31:13.923Z,8.11
2022-09-20T00:33:15.086Z,7.99
2022-09-20T00:35:16.697Z,7.9
2022-09-20T00:37:18.630Z,7.89
2022-09-20T00:39:19.620Z,7.85
2022-09-20T00:41:20.727Z,7.76
2022-09-20T00:43:21.717Z,7.73
2022-09-20T00:45:22.697Z,7.62
2022-09-20T00:47:23.895Z,7.74
2022-09-20T00:49:25.000Z,7.79
2022-09-20T00:51:26.778Z,7.79
2022-09-20T00:55:30.613Z,7.96
2022-09-20T00:57:32.550Z,7.97
2022-09-20T00:59:33.823Z,8.04
2022-09-20T01:01:34.864Z,8.04
2022-09-20T01:03:36.329Z,8.09
2022-09-20T01:05:37.432Z,8.12
2022-09-20T01:07:38.743Z,8.14
2022-09-20T01:09:39.928Z,8.18
2022-09-20T01:11:41.600Z,8.1
2022-09-20T01:13:43.284Z,7.99
2022-09-20T01:15:44.750Z,7.89
2022-09-20T01:17:45.859Z,7.87
2022-09-20T01:19:47.561Z,7.85
2022-09-20T01:21:48.812Z,7.82
2022-09-20T01:23:50.280Z,7.79
2022-09-20T01:25:51.902Z,7.8
2022-09-20T01:27:53.784Z,7.87
2022-09-20T01:29:55.381Z,7.88
2022-09-20T01:31:57.241Z,7.92
2022-09-20T01:33:58.332Z,7.95
2022-09-20T01:35:59.451Z,7.99
2022-09-20T01:38:01.486Z,8.01
2022-09-20T01:40:02.931Z,8.04
2022-09-20T01:42:04.463Z,8.12
2022-09-20T01:44:06.069Z,8.18
2022-09-20T01:46:07.435Z,8.22
2022-09-20T01:48:09.182Z,8.2
2022-09-20T01:50:10.402Z,8.13
2022-09-20T01:52:11.617Z,8.09
2022-09-20T01:54:13.027Z,8.11
2022-09-20T01:56:14.796Z,8.06
2022-09-20T01:58:16.451Z,8.09
2022-09-20T02:00:18.124Z,8.08
2022-09-20T02:02:19.913Z,8.1
2022-09-20T02:04:21.652Z,8.06
2022-09-20T02:06:23.119Z,8.07
2022-09-20T02:08:24.215Z,8.08
2022-09-20T02:10:26.039Z,8.1
2022-09-20T02:12:28.567Z,8.15
2022-09-20T02:14:28.637Z,8.19
2022-09-20T02:16:30.087Z,8.21
2022-09-20T02:18:31.247Z,8.18
2022-09-20T02:20:32.193Z,8.22
2022-09-20T02:22:33.388Z,8.26
2022-09-20T02:24:34.417Z,8.28
2022-09-20T02:26:35.750Z,8.32
2022-09-20T02:28:37.486Z,8.32
2022-09-20T02:30:38.994Z,8.33
2022-09-20T02:32:40.325Z,8.3
2022-09-20T02:34:41.529Z,8.27
2022-09-20T02:36:43.143Z,8.19
2022-09-20T02:38:44.325Z,8.13
2022-09-20T02:40:45.454Z,8.07
2022-09-20T02:42:47.166Z,8.03
2022-09-20T02:44:48.261Z,7.95
2022-09-20T02:46:50.111Z,7.84
2022-09-20T02:48:52.032Z,7.85
2022-09-20T02:50:53.273Z,7.8
2022-09-20T02:52:54.828Z,7.76
2022-09-20T02:54:55.910Z,7.73
2022-09-20T02:56:57.022Z,7.7
2022-09-20T02:58:58.005Z,7.66
2022-09-20T03:01:07.028Z,7.65
2022-09-20T03:03:00.022Z,7.67
2022-09-20T03:05:01.972Z,7.54
2022-09-20T03:07:03.859Z,7.44
2022-09-20T03:09:05.619Z,7.37
2022-09-20T03:11:06.996Z,7.29
2022-09-20T03:13:08.458Z,7.45
2022-09-20T03:15:10.109Z,7.35
2022-09-20T03:17:11.960Z,7.24
2022-09-20T03:19:13.258Z,7.28
2022-09-20T03:21:14.882Z,7.24
2022-09-20T03:23:15.958Z,7.21
2022-09-20T03:25:17.471Z,7.45
2022-09-20T03:27:18.495Z,7.35
2022-09-20T03:29:20.421Z,7.29
2022-09-20T03:31:21.834Z,7.18
2022-09-20T03:33:22.943Z,7.14
2022-09-20T03:35:24.866Z,7.14
2022-09-20T03:37:25.873Z,7.22
2022-09-20T03:39:27.417Z,7.27
2022-09-20T03:41:29.148Z,7.27
2022-09-20T03:43:30.378Z,7.17
2022-09-20T03:45:31.536Z,7.07
2022-09-20T03:47:33.014Z,6.99
2022-09-20T03:49:34.795Z,6.95
2022-09-20T03:51:36.234Z,6.89
2022-09-20T03:53:37.671Z,6.95
2022-09-20T03:55:39.486Z,7.12
2022-09-20T03:57:41.109Z,7.1
2022-09-20T04:00:35.953Z,7.07
2022-09-20T04:02:37.659Z,7.03
2022-09-20T04:04:39.570Z,7.19
2022-09-20T04:06:40.999Z,7.15
2022-09-20T04:08:42.761Z,7.14
2022-09-20T04:10:44.570Z,7.23
2022-09-20T04:12:45.605Z,7.14
2022-09-20T04:14:47.201Z,7.21
2022-09-20T04:16:49.237Z,7.15
2022-09-20T04:18:50.711Z,7.09
2022-09-20T04:20:51.914Z,7.12
2022-09-20T04:22:53.759Z,7.06
2022-09-20T04:24:54.957Z,7.06
2022-09-20T04:26:56.250Z,7.04
2022-09-20T04:28:57.780Z,7.14
2022-09-20T04:30:59.063Z,6.99
2022-09-20T04:33:00.882Z,6.8
2022-09-20T04:35:02.328Z,6.82
2022-09-20T04:37:04.223Z,6.75
2022-09-20T04:39:06.207Z,6.86
2022-09-20T04:41:08.177Z,6.81
2022-09-20T04:43:09.545Z,6.76
2022-09-20T04:45:11.529Z,6.79
2022-09-20T04:47:12.501Z,6.78
2022-09-20T04:49:14.183Z,6.8
2022-09-20T04:51:15.742Z,6.87
2022-09-20T04:53:16.756Z,6.77
2022-09-20T04:55:17.974Z,6.73
2022-09-20T04:57:19.658Z,6.83
2022-09-20T04:59:21.349Z,6.82
2022-09-20T05:01:22.456Z,6.64
2022-09-20T05:03:23.404Z,6.61
2022-09-20T05:05:24.692Z,6.64
2022-09-20T05:07:26.470Z,6.71
2022-09-20T05:09:28.067Z,6.69
2022-09-20T05:11:30.149Z,6.66
2022-09-20T05:13:31.316Z,6.76
2022-09-20T05:15:33.269Z,6.83
2022-09-20T05:17:34.300Z,6.88
2022-09-20T05:19:35.683Z,6.84
2022-09-20T05:21:37.040Z,6.83
2022-09-20T05:23:38.381Z,6.76
2022-09-20T05:25:40.199Z,6.8
2022-09-20T05:27:41.926Z,6.85
2022-09-20T05:29:43.845Z,6.91
2022-09-20T05:31:45.204Z,7.14
2022-09-20T05:33:46.935Z,7.27
2022-09-20T05:35:48.338Z,7.58
2022-09-20T05:37:49.348Z,7.87
2022-09-20T05:39:50.507Z,7.97
2022-09-20T05:41:51.618Z,7.87
2022-09-20T05:43:52.745Z,7.79
2022-09-20T05:45:54.192Z,7.89
2022-09-20T05:47:55.543Z,8.04
2022-09-20T05:49:56.755Z,8.16
2022-09-20T05:51:58.041Z,8.21
2022-09-20T05:53:59.396Z,8.38
2022-09-20T05:56:01.229Z,8.35
2022-09-20T05:58:02.325Z,8.33
2022-09-20T06:00:03.836Z,8.24
2022-09-20T06:04:06.923Z,7.97
2022-09-20T06:06:08.008Z,7.9
2022-09-20T06:08:09.269Z,7.81
2022-09-20T06:10:10.393Z,7.9
2022-09-20T06:12:11.780Z,7.96
2022-09-20T06:14:13.494Z,8.06
2022-09-20T06:16:15.275Z,8.2
2022-09-20T06:18:16.680Z,8.22
2022-09-20T06:20:18.570Z,8.28
2022-09-20T06:22:19.725Z,8.4
2022-09-20T06:24:21.522Z,8.45
2022-09-20T06:26:23.340Z,8.63
2022-09-20T06:28:24.672Z,8.72
2022-09-20T06:30:26.575Z,8.72
2022-09-20T06:32:27.439Z,8.66
2022-09-20T06:34:29.308Z,8.7
2022-09-20T06:36:30.853Z,8.74
2022-09-20T06:38:32.287Z,8.8
2022-09-20T06:40:33.879Z,8.89
2022-09-20T06:42:35.228Z,8.97
2022-09-20T06:44:36.750Z,9.06
2022-09-20T06:46:37.811Z,9.01
2022-09-20T06:48:39.342Z,8.96
2022-09-20T06:50:41.113Z,8.97
2022-09-20T06:52:42.532Z,9.05
2022-09-20T06:54:44.294Z,8.96
2022-09-20T06:56:45.979Z,9.06
2022-09-20T06:58:47.772Z,9.06
2022-09-20T07:00:48.941Z,9.15
2022-09-20T07:02:50.457Z,9.19
2022-09-20T07:04:51.853Z,9.22
2022-09-20T07:06:53.360Z,9.27
2022-09-20T07:08:54.679Z,9.33
2022-09-20T07:10:56.081Z,9.49
2022-09-20T07:12:57.579Z,9.52
2022-09-20T07:14:58.870Z,9.41
2022-09-20T07:17:00.654Z,9.53
2022-09-20T07:19:02.107Z,9.71
2022-09-20T07:21:03.810Z,9.76
2022-09-20T07:23:04.857Z,9.68
2022-09-20T07:25:06.738Z,9.71
2022-09-20T07:27:07.823Z,9.76
2022-09-20T07:29:09.567Z,9.73
2022-09-20T07:31:11.379Z,9.97
2022-09-20T07:33:12.938Z,10.03
2022-09-20T07:35:14.419Z,10.11
2022-09-20T07:37:15.663Z,10.31
2022-09-20T07:39:17.479Z,10.5
2022-09-20T07:41:18.813Z,10.56
2022-09-20T07:43:19.960Z,10.76
2022-09-20T07:45:21.421Z,10.79
2022-09-20T07:47:22.347Z,10.97
2022-09-20T07:49:23.550Z,11.01
2022-09-20T07:51:25.386Z,11.05
2022-09-20T07:53:26.634Z,11.26
2022-09-20T07:55:27.852Z,11.31
2022-09-20T07:57:29.174Z,11.48
2022-09-20T07:59:30.830Z,11.3
2022-09-20T08:01:32.047Z,11.58
2022-09-20T08:03:33.497Z,11.71
2022-09-20T08:05:34.503Z,11.64
2022-09-20T08:07:35.580Z,11.43
2022-09-20T08:09:36.854Z,11.25
2022-09-20T08:11:38.018Z,11.42
2022-09-20T08:14:06.864Z,11.44
2022-09-20T08:15:40.570Z,11.6
2022-09-20T08:17:41.762Z,11.47
2022-09-20T08:19:43.524Z,11.61
2022-09-20T08:21:44.550Z,11.87
2022-09-20T08:23:46.482Z,12
2022-09-20T08:27:49.251Z,12.09
2022-09-20T08:29:50.496Z,12.38
2022-09-20T08:31:51.612Z,12.63
2022-09-20T08:33:53.330Z,12.79
2022-09-20T08:35:57.564Z,12.63
2022-09-20T08:37:56.155Z,12.87
2022-09-20T08:39:58.083Z,12.95
2022-09-20T08:41:58.027Z,12.92
2022-09-20T08:43:59.059Z,13.26
2022-09-20T08:46:05.384Z,13.3
2022-09-20T08:48:02.981Z,13.09
2022-09-20T08:50:09.751Z,12.83
2022-09-20T08:52:10.238Z,12.59
2022-09-20T08:54:07.098Z,12.8
2022-09-20T08:56:07.940Z,13.26
2022-09-20T08:58:09.228Z,13.07
2022-09-20T09:00:10.819Z,13.38
2022-09-20T09:02:11.822Z,13.76
2022-09-20T09:04:14.144Z,14.17
2022-09-20T09:06:18.437Z,14.03
2022-09-20T09:08:16.972Z,14.39
2022-09-20T09:10:18.454Z,14.36
2022-09-20T09:12:19.574Z,14.57
2022-09-20T09:14:20.835Z,14.19
2022-09-20T09:16:23.243Z,14.2
2022-09-20T09:18:23.720Z,13.76
2022-09-20T09:20:25.525Z,13.8
2022-09-20T09:22:27.047Z,14.4
2022-09-20T09:24:28.011Z,14.3
2022-09-20T09:26:29.412Z,14.4
2022-09-20T09:28:30.741Z,15.01
2022-09-20T09:30:32.094Z,14.27
2022-09-20T09:32:33.054Z,14.24
2022-09-20T09:34:33.931Z,13.97
2022-09-20T09:36:35.055Z,13.81
2022-09-20T09:38:36.316Z,13.73
2022-09-20T09:40:37.405Z,13.43
2022-09-20T09:42:39.188Z,13.52
2022-09-20T09:44:40.521Z,13.08
2022-09-20T09:46:41.939Z,12.8
2022-09-20T09:48:43.710Z,12.67
2022-09-20T09:50:45.273Z,12.39
2022-09-20T09:52:46.621Z,12.32
2022-09-20T09:54:49.102Z,12.26
2022-09-20T09:56:50.767Z,12.19
2022-09-20T09:58:52.725Z,12.23
2022-09-20T10:00:54.029Z,12.28
2022-09-20T10:02:55.095Z,12.35
2022-09-20T10:04:56.007Z,12.53
2022-09-20T10:06:57.234Z,12.65
2022-09-20T10:08:58.936Z,13.23
2022-09-20T10:11:00.633Z,13.42
2022-09-20T10:13:02.273Z,13.4
2022-09-20T10:15:03.790Z,13.45
2022-09-20T10:17:04.925Z,13.33
2022-09-20T10:19:06.490Z,13.3
2022-09-20T10:21:07.796Z,13.35
2022-09-20T10:23:34.759Z,13.29
2022-09-20T10:25:09.892Z,13.54
2022-09-20T10:27:10.833Z,13.68
2022-09-20T10:29:12.123Z,13.88
2022-09-20T10:31:13.336Z,14.11
2022-09-20T10:33:14.374Z,14.49
2022-09-20T10:35:15.266Z,14.34
2022-09-20T10:37:16.467Z,15.01
2022-09-20T10:39:17.435Z,15.01
2022-09-20T10:41:19.001Z,14.85
2022-09-20T10:43:20.619Z,14.97
2022-09-20T10:45:44.290Z,15.26
2022-09-20T10:48:06.785Z,15.02
2022-09-20T10:50:07.821Z,14.43
2022-09-20T10:52:09.374Z,14.55
2022-09-20T10:54:10.470Z,14.62
2022-09-20T10:56:11.426Z,14.55
2022-09-20T10:58:12.522Z,14.64
2022-09-20T11:00:14.315Z,14.76
2022-09-20T11:02:15.999Z,14.26
2022-09-20T11:04:17.272Z,14.31
2022-09-20T11:06:19.019Z,14.24
2022-09-20T11:08:19.898Z,14.32
2022-09-20T11:10:21.581Z,14.26
2022-09-20T11:12:23.135Z,14.13
2022-09-20T11:14:24.398Z,14.12
2022-09-20T11:16:25.609Z,14.16
2022-09-20T11:18:27.839Z,14.18
2022-09-20T11:20:28.588Z,14.3
2022-09-20T11:22:29.502Z,14.01
2022-09-20T11:24:31.213Z,13.98
2022-09-20T11:26:32.995Z,14.07
2022-09-20T11:28:33.938Z,13.67
2022-09-20T11:30:34.813Z,13.49
2022-09-20T11:32:36.616Z,13.26
2022-09-20T11:34:37.824Z,13.32
2022-09-20T11:36:39.046Z,13.39
2022-09-20T11:38:40.857Z,13.68
2022-09-20T11:40:42.484Z,13.76
2022-09-20T11:42:44.153Z,13.89
2022-09-20T11:44:45.669Z,13.91
2022-09-20T11:46:47.513Z,13.39
2022-09-20T11:48:48.967Z,13.34
2022-09-20T11:50:50.660Z,13.8
2022-09-20T11:52:51.761Z,13.85
2022-09-20T11:54:52.883Z,13.92
2022-09-20T11:56:54.729Z,14.38
2022-09-20T11:58:56.504Z,15.25
2022-09-20T12:00:58.214Z,15.52
2022-09-20T12:02:59.271Z,15.67
2022-09-20T12:05:00.943Z,15.19
2022-09-20T12:07:06.028Z,14.6
2022-09-20T12:09:03.461Z,14.27
2022-09-20T12:11:05.184Z,13.89
2022-09-20T12:13:06.331Z,13.75
2022-09-20T12:15:07.581Z,13.92
2022-09-20T12:17:08.822Z,14.25
2022-09-20T12:19:10.296Z,14.42
2022-09-20T12:21:15.216Z,14.8
2022-09-20T12:23:12.840Z,15.21
2022-09-20T12:25:14.319Z,16.05
2022-09-20T12:27:15.194Z,16.32
2022-09-20T12:29:16.244Z,16.34
2022-09-20T12:31:17.244Z,16.43
2022-09-20T12:33:18.619Z,15.77
2022-09-20T12:35:20.938Z,14.23
2022-09-20T12:37:22.263Z,13.76
2022-09-20T12:39:26.377Z,13.38
2022-09-20T12:41:28.460Z,13.07
2022-09-20T12:43:26.978Z,12.83
2022-09-20T12:45:28.542Z,12.95
2022-09-20T12:47:30.186Z,13.19
2022-09-20T12:49:31.804Z,13.68
2022-09-20T12:51:32.972Z,14.24
2022-09-20T12:53:34.389Z,14.37
2022-09-20T12:55:35.619Z,14.57
2022-09-20T12:57:37.263Z,14.97
2022-09-20T12:59:38.464Z,15.42
2022-09-20T13:01:39.843Z,15.9
2022-09-20T13:03:41.348Z,16.37
2022-09-20T13:05:42.488Z,16.88
2022-09-20T13:07:44.296Z,17.13
2022-09-20T13:09:45.114Z,16.37
2022-09-20T13:11:46.020Z,16.07
2022-09-20T13:13:47.031Z,15.58
2022-09-20T13:15:48.271Z,15.89
2022-09-20T13:17:50.054Z,15.4
2022-09-20T13:19:51.883Z,14.64
2022-09-20T13:21:53.479Z,14.25
2022-09-20T13:23:54.521Z,14.27
2022-09-20T13:25:55.553Z,14.05
2022-09-20T13:27:56.450Z,13.64
2022-09-20T13:29:57.414Z,13.48
2022-09-20T13:31:58.304Z,13.43
2022-09-20T13:33:59.714Z,13.31
2022-09-20T13:36:00.900Z,13.28
2022-09-20T13:38:02.397Z,13.22
2022-09-20T13:42:04.146Z,13.77
2022-09-20T13:44:05.732Z,14
2022-09-20T13:46:07.606Z,14.85
2022-09-20T13:48:08.652Z,15.5
2022-09-20T13:50:10.016Z,15.81
2022-09-20T13:52:11.421Z,16.28
2022-09-20T13:54:12.343Z,16.07
2022-09-20T13:56:13.168Z,15.59
2022-09-20T13:58:14.820Z,15.89
2022-09-20T14:00:16.533Z,16.32
2022-09-20T14:02:17.780Z,16.5
2022-09-20T14:04:19.107Z,16.72
2022-09-20T14:06:20.036Z,16.85
2022-09-20T14:08:21.498Z,17.04
2022-09-20T14:10:23.300Z,16.7
2022-09-20T14:12:24.823Z,17.11
2022-09-20T14:14:25.705Z,17.56
2022-09-20T14:16:27.059Z,17.79
2022-09-20T14:18:27.953Z,17.3
2022-09-20T14:20:29.648Z,17.27
2022-09-20T14:22:31.294Z,17.45
2022-09-20T14:24:32.422Z,17.6
2022-09-20T14:26:33.312Z,17.25
2022-09-20T14:28:34.802Z,17.23
2022-09-20T14:30:36.582Z,17.66
2022-09-20T14:32:37.551Z,17.43
2022-09-20T14:34:38.584Z,17.24
2022-09-20T14:36:39.877Z,17.41
2022-09-20T14:38:40.666Z,17.35
2022-09-20T14:40:42.266Z,17.34
2022-09-20T14:42:43.515Z,17.21
2022-09-20T14:44:44.529Z,16.55
2022-09-20T14:46:45.905Z,15.66
2022-09-20T14:48:47.036Z,15.75
2022-09-20T14:50:48.095Z,16.38
2022-09-20T14:52:49.371Z,17.12
2022-09-20T14:54:50.661Z,17.57
2022-09-20T14:56:52.830Z,17.74
2022-09-20T14:58:53.508Z,17.34
2022-09-20T15:00:55.423Z,17.58
2022-09-20T15:02:56.856Z,17.68
2022-09-20T15:04:57.662Z,17.8
2022-09-20T15:06:58.957Z,18.05
2022-09-20T15:08:59.831Z,17.51
2022-09-20T15:11:01.473Z,16.83
2022-09-20T15:13:02.986Z,17.01
2022-09-20T15:15:04.645Z,17.75
2022-09-20T15:17:05.760Z,17.39
2022-09-20T15:19:07.638Z,17.01
2022-09-20T15:21:08.872Z,16.54
2022-09-20T15:23:09.829Z,14.99
2022-09-20T15:25:11.308Z,14.59
2022-09-20T15:27:12.685Z,14.31
2022-09-20T15:29:14.038Z,13.77
2022-09-20T15:31:15.499Z,13.49
2022-09-20T15:33:16.817Z,13.25
2022-09-20T15:35:18.525Z,13.1
2022-09-20T15:37:20.190Z,12.83
2022-09-20T15:39:22.073Z,12.78
2022-09-20T15:41:26.018Z,12.81
2022-09-20T15:43:25.034Z,12.79
2022-09-20T15:45:26.539Z,12.67
2022-09-20T15:47:27.469Z,12.48
2022-09-20T15:49:28.755Z,12.07
2022-09-20T15:51:30.046Z,11.8
2022-09-20T15:53:31.107Z,11.6
2022-09-20T15:55:33.069Z,11.5
2022-09-20T15:57:34.733Z,11.29
2022-09-20T15:59:35.927Z,11.23
2022-09-20T16:01:36.899Z,11.28
2022-09-20T16:03:37.979Z,11.24
2022-09-20T16:05:39.668Z,11.29
2022-09-20T16:07:41.514Z,11.34
2022-09-20T16:09:43.271Z,11.4
2022-09-20T16:11:44.312Z,11.4
2022-09-20T16:13:45.758Z,11.42
2022-09-20T16:15:47.001Z,11.48
2022-09-20T16:17:47.917Z,11.43
2022-09-20T16:19:49.464Z,11.34
2022-09-20T16:21:55.179Z,11.38
2022-09-20T16:23:52.665Z,11.41
2022-09-20T16:25:54.528Z,11.45
2022-09-20T16:27:55.915Z,11.66
2022-09-20T16:29:57.451Z,11.76
2022-09-20T16:31:58.468Z,11.79
2022-09-20T16:33:59.484Z,11.93
2022-09-20T16:36:00.473Z,11.94
2022-09-20T16:38:01.956Z,11.86
2022-09-20T16:40:03.309Z,11.82
2022-09-20T16:42:04.922Z,11.71
2022-09-20T16:44:06.434Z,11.63
2022-09-20T16:46:07.536Z,11.63
2022-09-20T16:48:09.234Z,11.63
2022-09-20T16:50:10.434Z,11.62
2022-09-20T16:52:11.476Z,11.46
2022-09-20T16:54:12.405Z,11.43
2022-09-20T16:56:17.205Z,11.46
2022-09-20T16:58:14.599Z,11.39
2022-09-20T17:00:16.555Z,11.3
2022-09-20T17:02:17.565Z,11.19
2022-09-20T17:04:18.579Z,11.08
2022-09-20T17:06:19.997Z,11.05
2022-09-20T17:08:21.677Z,11.01
2022-09-20T17:10:23.151Z,10.95
2022-09-20T17:12:24.820Z,10.9
2022-09-20T17:14:25.746Z,10.84
2022-09-20T17:16:26.820Z,10.8
2022-09-20T17:18:28.102Z,10.69
2022-09-20T17:20:29.967Z,10.54
2022-09-20T17:22:31.593Z,10.38
2022-09-20T17:24:32.690Z,10.34
2022-09-20T17:26:33.724Z,10.24
2022-09-20T17:28:35.024Z,10.11
2022-09-20T17:30:36.429Z,10.06
2022-09-20T17:31:20.289Z,10.08
2022-09-20T17:33:21.776Z,10.02
2022-09-20T17:35:22.711Z,9.95
2022-09-20T17:37:24.371Z,10
2022-09-20T17:41:26.548Z,9.86
2022-09-20T17:43:27.952Z,9.79
2022-09-20T17:45:28.940Z,9.75
2022-09-20T17:47:30.870Z,9.74
2022-09-20T17:49:31.906Z,9.72
2022-09-20T17:51:33.281Z,9.64
2022-09-20T17:53:34.840Z,9.6
2022-09-20T17:55:36.116Z,9.54
2022-09-20T17:57:37.431Z,9.42
2022-09-20T17:59:39.380Z,9.29
2022-09-20T18:01:41.232Z,9.19
2022-09-20T18:03:42.341Z,9.18
2022-09-20T18:05:43.598Z,9.17
2022-09-20T18:07:44.824Z,9.13
2022-09-20T18:09:46.505Z,9.11
2022-09-20T18:11:48.430Z,9.14
2022-09-20T18:13:49.436Z,9.14
2022-09-20T18:15:50.929Z,9.02
2022-09-20T18:17:54.471Z,9.02
2022-09-20T18:19:52.943Z,8.88
2022-09-20T18:21:54.200Z,8.83
2022-09-20T18:23:56.019Z,8.85
2022-09-20T18:25:57.070Z,8.82
2022-09-20T18:27:58.821Z,8.83
2022-09-20T18:29:59.781Z,8.82
2022-09-20T18:32:01.486Z,8.73
2022-09-20T18:34:02.999Z,8.62
2022-09-20T18:36:04.542Z,8.63
2022-09-20T18:38:05.855Z,8.59
2022-09-20T18:40:07.045Z,8.48
2022-09-20T18:42:08.333Z,8.44
2022-09-20T18:44:10.174Z,8.59
2022-09-20T18:46:11.830Z,8.71
2022-09-20T18:48:13.693Z,8.8
2022-09-20T18:50:15.297Z,8.82
2022-09-20T18:52:16.277Z,8.91
2022-09-20T18:54:17.567Z,8.7
2022-09-20T18:56:19.480Z,8.45
2022-09-20T18:58:20.672Z,8.47
2022-09-20T19:00:22.361Z,8.58
2022-09-20T19:02:23.941Z,8.78
2022-09-20T19:04:25.323Z,8.79
2022-09-20T19:06:26.529Z,8.79
2022-09-20T19:08:28.152Z,8.92
2022-09-20T19:10:29.207Z,8.95
2022-09-20T19:12:30.325Z,8.91
2022-09-20T19:14:32.274Z,8.8
2022-09-20T19:16:33.838Z,8.76
2022-09-20T19:18:35.553Z,8.69
2022-09-20T19:20:37.029Z,8.74
2022-09-20T19:22:38.193Z,8.78
2022-09-20T19:24:40.028Z,8.82
2022-09-20T19:26:40.924Z,8.87
2022-09-20T19:28:42.100Z,8.96
2022-09-20T19:30:43.391Z,9
2022-09-20T19:32:44.742Z,9.06
2022-09-20T19:34:46.455Z,8.89
2022-09-20T19:36:47.518Z,8.89
2022-09-20T19:38:48.829Z,8.93
2022-09-20T19:40:49.896Z,8.92
2022-09-20T19:42:50.965Z,8.99
2022-09-20T19:44:51.987Z,8.99
2022-09-20T19:46:53.109Z,9.08
2022-09-20T19:48:54.589Z,9.02
2022-09-20T19:50:55.481Z,9.04
2022-09-20T19:52:57.379Z,9.02
2022-09-20T19:54:59.154Z,8.97
2022-09-20T19:57:00.198Z,8.96
2022-09-20T19:59:01.337Z,8.92
2022-09-20T20:01:02.791Z,8.98
2022-09-20T20:05:05.565Z,8.98
2022-09-20T20:07:07.459Z,8.83
2022-09-20T20:09:08.964Z,8.85
2022-09-20T20:11:09.905Z,8.8
2022-09-20T20:13:11.602Z,8.8
2022-09-20T20:15:12.865Z,8.83
2022-09-20T20:17:14.449Z,8.83
2022-09-20T20:19:15.556Z,8.83
2022-09-20T20:21:16.590Z,8.8
2022-09-20T20:23:18.413Z,8.82
2022-09-20T20:25:19.772Z,8.81
2022-09-20T20:27:21.520Z,8.77
2022-09-20T20:29:22.860Z,8.77
2022-09-20T20:31:24.001Z,8.75
2022-09-20T20:33:25.562Z,8.77
2022-09-20T20:35:27.479Z,8.79
2022-09-20T20:37:29.379Z,8.78
2022-09-20T20:39:31.016Z,8.74
2022-09-20T20:41:32.805Z,8.74
2022-09-20T20:43:34.255Z,8.71
2022-09-20T20:45:35.814Z,8.68
2022-09-20T20:47:37.411Z,8.61
2022-09-20T20:49:38.654Z,8.63
2022-09-20T20:51:39.619Z,8.58
2022-09-20T20:53:40.808Z,8.61
2022-09-20T20:55:42.350Z,8.68
2022-09-20T20:57:43.450Z,8.63
2022-09-20T20:59:45.192Z,8.61
2022-09-20T21:01:46.448Z,8.58
2022-09-20T21:03:48.221Z,8.61
2022-09-20T21:05:49.674Z,8.58
2022-09-20T21:07:50.812Z,8.55
2022-09-20T21:09:52.077Z,8.55
2022-09-20T21:11:53.623Z,8.54
2022-09-20T21:13:54.996Z,8.58
2022-09-20T21:15:55.993Z,8.51
2022-09-20T21:17:57.714Z,8.5
2022-09-20T21:19:59.258Z,8.41
2022-09-20T21:22:00.964Z,8.43
2022-09-20T21:24:02.909Z,8.54
2022-09-20T21:26:04.686Z,8.57
2022-09-20T21:28:05.812Z,8.53
2022-09-20T21:30:07.679Z,8.51
2022-09-20T21:32:08.900Z,8.38
2022-09-20T21:34:10.511Z,8.38
2022-09-20T21:36:12.310Z,8.36
2022-09-20T21:38:13.530Z,8.4
2022-09-20T21:40:15.432Z,8.43
2022-09-20T21:42:16.496Z,8.35
2022-09-20T21:44:17.705Z,8.23
2022-09-20T21:46:19.231Z,8.05
2022-09-20T21:48:20.317Z,7.86
2022-09-20T21:50:21.345Z,7.88
2022-09-20T21:52:22.664Z,7.85
2022-09-20T21:54:24.668Z,7.92
2022-09-20T21:56:26.112Z,7.8
2022-09-20T21:58:27.931Z,7.76
2022-09-20T22:00:29.750Z,7.63
2022-09-20T22:02:31.318Z,7.59
2022-09-20T22:04:33.275Z,7.57
2022-09-20T22:06:35.546Z,7.5
2022-09-20T22:08:36.512Z,7.41
2022-09-20T22:10:38.206Z,7.31
2022-09-20T22:12:39.369Z,7.29
2022-09-20T22:14:41.198Z,7.32
2022-09-20T22:16:42.485Z,7.32
2022-09-20T22:18:44.113Z,7.3
2022-09-20T22:20:45.054Z,7.42
2022-09-20T22:22:46.818Z,7.36
2022-09-20T22:24:48.493Z,7.29
2022-09-20T22:26:49.548Z,7.26
2022-09-20T22:28:51.415Z,7.15
2022-09-20T22:30:52.989Z,7.1
2022-09-20T22:32:54.699Z,6.98
2022-09-20T22:34:56.251Z,7.06
2022-09-20T22:36:58.517Z,7.08
2022-09-20T22:38:59.339Z,7.02
2022-09-20T22:41:00.935Z,7.04
2022-09-20T22:43:02.330Z,7.11
2022-09-20T22:45:04.062Z,7.18
2022-09-20T22:47:05.296Z,7.15
2022-09-20T22:49:06.448Z,7.03
2022-09-20T22:51:07.677Z,6.87
2022-09-20T22:53:08.800Z,6.63
2022-09-20T22:55:10.148Z,6.69
2022-09-20T22:57:11.369Z,6.73
2022-09-20T22:59:12.889Z,6.63
2022-09-20T23:01:14.174Z,6.56
2022-09-20T23:03:15.738Z,6.52
2022-09-20T23:05:17.412Z,6.61
2022-09-20T23:07:19.206Z,6.64
2022-09-20T23:09:20.333Z,6.7
2022-09-20T23:11:22.218Z,6.75
2022-09-20T23:13:23.554Z,6.78
2022-09-20T23:15:24.544Z,6.79
2022-09-20T23:17:26.171Z,6.82
2022-09-20T23:19:27.375Z,6.87
2022-09-20T23:21:28.457Z,6.9
2022-09-20T23:23:30.075Z,6.94
2022-09-20T23:25:31.485Z,6.97
2022-09-20T23:27:33.245Z,7.01
2022-09-20T23:29:34.463Z,7.02
2022-09-20T23:31:36.155Z,7.01
2022-09-20T23:33:37.983Z,6.98
2022-09-20T23:35:39.520Z,6.94
2022-09-20T23:37:40.535Z,6.91
2022-09-20T23:39:41.806Z,6.92
2022-09-20T23:41:47.137Z,6.94
2022-09-20T23:43:45.164Z,6.93
2022-09-20T23:45:46.820Z,6.86
2022-09-20T23:47:48.125Z,6.91
2022-09-20T23:49:49.415Z,6.91
2022-09-20T23:53:53.184Z,6.99
2022-09-20T23:55:54.288Z,6.98
2022-09-20T23:57:56.114Z,7.03
2022-09-20T23:59:57.410Z,7.06
